Time;durP1;ratioP1;P1;durP2;ratioP2;P2;SDS_P1;SDS_P2;PMS_P1;PMS_P2;Temp;Humidity;BMP_temperature;BMP_pressure;BME280_temperature;BME280_humidity;BME280_pressure;Samples;Min_cycle;Max_cycle;Signal;HPM_P1;HPM_P2
2022/03/10 00:00:06;;;;;;;8.88;5.85;;;;;;;10.35;28.06;100678.63;5111628;28;20051;-63
2022/03/10 00:02:32;;;;;;;11.10;6.10;;;;;;;10.33;28.14;100669.94;5112004;28;20055;-63
2022/03/10 00:04:59;;;;;;;8.70;6.40;;;;;;;10.28;28.07;100673.59;5113566;28;20079;-62
2022/03/10 00:07:26;;;;;;;10.82;6.40;;;;;;;10.25;28.34;100672.88;5113070;28;20051;-61
2022/03/10 00:09:52;;;;;;;10.63;6.55;;;;;;;10.20;28.59;100669.59;5112492;28;20077;-62
2022/03/10 00:12:19;;;;;;;11.05;6.72;;;;;;;10.14;28.52;100671.53;5113225;28;20048;-61
2022/03/10 00:14:45;;;;;;;9.30;6.72;;;;;;;10.09;28.74;100670.03;5113199;28;20461;-63
2022/03/10 00:17:12;;;;;;;13.27;7.22;;;;;;;10.03;29.06;100674.59;5112677;28;20098;-62
2022/03/10 00:19:39;;;;;;;10.60;6.88;;;;;;;9.98;28.74;100681.81;5112401;28;20051;-61
2022/03/10 00:22:06;;;;;;;9.50;6.43;;;;;;;9.94;28.76;100696.00;5112919;28;20739;-61
2022/03/10 00:24:33;;;;;;;12.35;6.55;;;;;;;9.91;28.79;100689.09;5112788;28;20047;-62
2022/03/10 00:26:59;;;;;;;11.73;6.43;;;;;;;9.90;28.89;100697.03;5112840;28;20105;-61
2022/03/10 00:29:26;;;;;;;9.15;6.25;;;;;;;9.87;29.20;100689.28;5112242;28;20962;-62
2022/03/10 00:31:52;;;;;;;9.57;6.47;;;;;;;9.86;29.28;100687.56;5112704;28;20109;-61
2022/03/10 00:34:19;;;;;;;10.45;6.50;;;;;;;9.84;29.45;100694.66;5112513;28;20448;-61
2022/03/10 00:36:46;;;;;;;10.80;6.90;;;;;;;9.83;29.38;100690.31;5111774;28;20082;-61
2022/03/10 00:39:13;;;;;;;9.93;6.72;;;;;;;9.81;29.54;100697.41;5112067;28;20128;-62
2022/03/10 00:41:40;;;;;;;12.95;6.80;;;;;;;9.80;29.44;100693.06;5112640;28;20492;-62
2022/03/10 00:44:06;;;;;;;9.77;7.10;;;;;;;9.80;29.56;100698.31;5112861;28;20112;-62
2022/03/10 00:46:33;;;;;;;9.20;6.47;;;;;;;9.78;29.42;100698.38;5112634;28;20097;-62
2022/03/10 00:48:59;;;;;;;10.98;6.15;;;;;;;9.76;29.34;100692.34;5112028;28;20499;-62
2022/03/10 00:51:26;;;;;;;12.05;6.47;;;;;;;9.74;29.71;100689.75;5111048;28;20055;-61
2022/03/10 00:53:52;;;;;;;10.07;6.70;;;;;;;9.73;29.44;100690.69;5112385;28;20446;-61
2022/03/10 00:56:19;;;;;;;10.82;6.90;;;;;;;9.72;29.81;100688.13;5112141;28;20051;-61
2022/03/10 00:58:46;;;;;;;10.20;6.50;;;;;;;9.69;29.90;100693.47;5112057;28;20463;-61
2022/03/10 01:01:12;;;;;;;12.60;7.13;;;;;;;9.67;29.94;100687.41;5111468;28;20633;-61
2022/03/10 01:03:39;;;;;;;10.55;6.80;;;;;;;9.65;30.12;100690.97;5112402;28;20044;-61
2022/03/10 01:06:06;;;;;;;10.80;7.10;;;;;;;9.62;29.91;100683.22;5112105;28;20055;-61
2022/03/10 01:08:32;;;;;;;10.80;6.65;;;;;;;9.61;30.21;100684.09;5111741;28;20051;-61
2022/03/10 01:10:59;;;;;;;9.98;6.05;;;;;;;9.60;29.80;100689.41;5110726;28;20040;-63
2022/03/10 01:13:25;;;;;;;10.77;6.72;;;;;;;9.59;30.26;100685.06;5111426;28;20104;-62
2022/03/10 01:15:52;;;;;;;9.20;6.28;;;;;;;9.58;30.19;100686.00;5112338;28;20047;-60
2022/03/10 01:18:19;;;;;;;14.18;6.95;;;;;;;9.56;30.26;100682.56;5111768;28;20051;-64
2022/03/10 01:20:46;;;;;;;9.35;6.72;;;;;;;9.54;30.28;100685.28;5110484;28;20522;-61
2022/03/10 01:23:14;;;;;;;9.25;6.90;;;;;;;9.52;30.41;100682.69;5111950;28;20501;-62
2022/03/10 01:25:40;;;;;;;9.75;6.53;;;;;;;9.51;30.42;100688.00;5112119;28;20059;-62
2022/03/10 01:28:07;;;;;;;11.05;6.95;;;;;;;9.49;30.26;100685.44;5110297;28;20100;-63
2022/03/10 01:30:34;;;;;;;9.93;6.60;;;;;;;9.47;30.30;100691.66;5110071;28;20111;-62
2022/03/10 01:33:01;;;;;;;13.85;6.43;;;;;;;9.45;30.88;100691.72;5111951;28;20112;-61
2022/03/10 01:35:28;;;;;;;9.65;6.47;;;;;;;9.43;30.54;100690.94;5111976;28;20457;-61
2022/03/10 01:37:55;;;;;;;11.02;7.05;;;;;;;9.41;30.48;100698.00;5111069;28;20047;-62
2022/03/10 01:40:21;;;;;;;10.00;6.32;;;;;;;9.38;30.47;100704.22;5110730;28;20124;-63
2022/03/10 01:42:48;;;;;;;8.40;6.25;;;;;;;9.37;30.79;100699.88;5110069;28;20101;-61
2022/03/10 01:45:15;;;;;;;9.88;6.72;;;;;;;9.36;30.57;100707.81;5110984;28;20044;-61
2022/03/10 01:47:42;;;;;;;9.73;6.22;;;;;;;9.35;30.60;100703.50;5110248;28;20055;-63
2022/03/10 01:50:11;;;;;;;11.27;6.85;;;;;;;9.33;31.19;100707.94;5110489;28;20043;-61
2022/03/10 01:52:39;;;;;;;10.32;6.55;;;;;;;9.32;30.94;100701.84;5110267;28;20048;-62
2022/03/10 01:55:06;;;;;;;11.98;6.10;;;;;;;9.32;30.83;100690.47;5111312;28;20048;-61
2022/03/10 01:57:33;;;;;;;10.88;6.85;;;;;;;9.31;30.93;100694.00;5111739;28;20047;-62
2022/03/10 02:00:00;;;;;;;11.82;6.80;;;;;;;9.29;30.93;100683.53;5110434;28;20075;-63
2022/03/10 02:02:27;;;;;;;13.65;7.03;;;;;;;9.28;30.63;100691.47;5109748;28;20047;-60
2022/03/10 02:04:55;;;;;;;10.00;7.03;;;;;;;9.25;31.09;100690.69;5111273;28;20407;-61
2022/03/10 02:10:16;;;;;;;12.30;7.25;;;;;;;9.23;30.70;100691.63;5110297;28;20484;-62
2022/03/10 02:12:54;;;;;;;10.57;6.15;;;;;;;9.17;30.74;100690.13;5111242;28;20154;-61
2022/03/10 02:18:14;;;;;;;10.82;6.10;;;;;;;9.16;30.83;100672.63;5110293;28;20096;-61
2022/03/10 02:20:41;;;;;;;10.48;6.57;;;;;;;9.15;31.25;100675.31;5110258;28;20052;-62
2022/03/10 02:23:09;;;;;;;13.88;6.15;;;;;;;9.11;31.21;100675.44;5110754;28;20044;-60
2022/03/10 02:25:37;;;;;;;11.95;6.88;;;;;;;9.11;31.54;100675.44;5111095;28;20043;-61
2022/03/10 02:28:03;;;;;;;11.25;7.05;;;;;;;9.10;31.38;100668.47;5110870;28;20047;-61
2022/03/10 02:30:32;;;;;;;11.25;6.97;;;;;;;9.10;31.63;100664.97;5109837;28;20084;-62
2022/03/10 02:32:59;;;;;;;9.52;6.55;;;;;;;9.10;31.08;100667.59;5110445;28;20112;-62
2022/03/10 02:35:26;;;;;;;11.32;6.70;;;;;;;9.09;31.56;100674.59;5110943;28;20051;-61
2022/03/10 02:37:53;;;;;;;12.40;7.28;;;;;;;9.09;31.11;100671.97;5109579;28;20044;-63
2022/03/10 02:40:20;;;;;;;10.15;6.45;;;;;;;9.09;31.37;100668.53;5110102;28;20514;-60
2022/03/10 02:42:46;;;;;;;11.10;6.68;;;;;;;9.09;31.38;100671.97;5110582;28;20074;-61
2022/03/10 02:45:13;;;;;;;10.43;6.72;;;;;;;9.08;31.63;100670.28;5110520;28;20517;-63
2022/03/10 02:47:40;;;;;;;13.00;6.65;;;;;;;9.08;31.42;100666.81;5110992;28;20100;-60
2022/03/10 02:50:07;;;;;;;9.48;6.45;;;;;;;9.07;31.26;100667.69;5109585;28;20051;-61
2022/03/10 02:52:37;;;;;;;8.07;6.25;;;;;;;9.05;31.77;100665.13;5110709;28;20104;-62
2022/03/10 02:55:05;;;;;;;8.15;5.40;;;;;;;9.05;31.75;100662.50;5110641;28;20469;-61
2022/03/10 02:57:32;;;;;;;12.13;7.03;;;;;;;9.04;31.56;100657.31;5110610;28;20508;-61
2022/03/10 02:59:59;;;;;;;13.63;7.05;;;;;;;9.04;31.29;100658.16;5110956;28;20458;-62
2022/03/10 03:02:27;;;;;;;10.98;6.55;;;;;;;9.02;31.46;100654.75;5114742;28;20047;-60
2022/03/10 03:04:53;;;;;;;10.63;6.80;;;;;;;9.02;31.38;100656.50;5113546;28;20449;-62
2022/03/10 03:07:20;;;;;;;10.45;6.85;;;;;;;8.99;31.62;100655.72;5113376;28;20104;-60
2022/03/10 03:09:47;;;;;;;10.23;7.03;;;;;;;8.96;31.58;100653.19;5114087;28;20051;-62
2022/03/10 03:12:13;;;;;;;12.00;6.55;;;;;;;8.95;31.70;100659.38;5114187;28;20043;-63
2022/03/10 03:14:43;;;;;;;9.77;6.00;;;;;;;8.93;31.58;100658.56;5114329;28;20434;-61
2022/03/10 03:17:10;;;;;;;11.27;7.20;;;;;;;8.92;31.75;100656.84;5114287;28;20517;-61
2022/03/10 03:19:37;;;;;;;9.73;6.63;;;;;;;8.91;31.99;100659.53;5112550;28;20522;-61
2022/03/10 03:22:04;;;;;;;12.95;7.10;;;;;;;8.90;31.99;100660.44;5113868;28;20051;-62
2022/03/10 03:24:31;;;;;;;11.63;7.30;;;;;;;8.88;31.90;100667.50;5114230;28;20123;-61
2022/03/10 03:26:58;;;;;;;11.43;7.75;;;;;;;8.86;32.09;100660.53;5113704;28;20056;-62
2022/03/10 03:29:25;;;;;;;12.02;6.88;;;;;;;8.84;31.73;100659.75;5113499;28;20139;-61
2022/03/10 03:31:52;;;;;;;9.70;6.97;;;;;;;8.83;32.30;100662.44;5113649;28;20051;-63
2022/03/10 03:34:18;;;;;;;10.23;6.75;;;;;;;8.83;31.82;100668.50;5112740;28;20104;-61
2022/03/10 03:36:45;;;;;;;11.85;7.53;;;;;;;8.81;32.22;100666.84;5113735;28;20048;-61
2022/03/10 03:39:13;;;;;;;10.80;7.10;;;;;;;8.80;31.79;100668.66;5113089;28;20047;-61
2022/03/10 03:41:41;;;;;;;12.75;7.25;;;;;;;8.82;31.93;100673.84;5113385;28;20649;-61
2022/03/10 03:44:09;;;;;;;10.52;6.85;;;;;;;8.79;32.04;100666.91;5113134;28;20047;-61
2022/03/10 03:46:37;;;;;;;13.82;7.15;;;;;;;8.78;32.30;100667.81;5114103;28;20039;-61
2022/03/10 03:49:07;;;;;;;14.60;6.65;;;;;;;8.76;32.23;100667.03;5113713;28;20093;-66
2022/03/10 03:51:34;;;;;;;12.60;6.72;;;;;;;8.75;32.23;100672.34;5111988;28;20051;-61
2022/03/10 03:54:01;;;;;;;11.65;6.85;;;;;;;8.73;32.27;100675.88;5113499;28;20086;-61
2022/03/10 03:56:28;;;;;;;9.50;6.25;;;;;;;8.71;31.95;100674.22;5113392;28;20476;-61
2022/03/10 03:58:54;;;;;;;13.50;7.53;;;;;;;8.69;32.09;100679.50;5113470;28;20040;-61
2022/03/10 04:01:21;;;;;;;9.40;6.47;;;;;;;8.68;32.22;100687.44;5112331;28;20055;-61
2022/03/10 04:03:48;;;;;;;10.82;6.95;;;;;;;8.67;32.29;100699.69;5113483;28;20130;-61
2022/03/10 04:06:16;;;;;;;10.95;6.80;;;;;;;8.66;32.36;100695.34;5112008;28;20104;-61
2022/03/10 04:08:43;;;;;;;12.13;6.57;;;;;;;8.66;32.30;100702.38;5112236;28;20044;-63
2022/03/10 04:11:10;;;;;;;10.30;6.70;;;;;;;8.65;32.20;100700.66;5110998;28;20553;-60
2022/03/10 04:13:37;;;;;;;9.90;6.75;;;;;;;8.63;32.30;100698.06;5112913;28;20051;-60
2022/03/10 04:16:06;;;;;;;13.93;7.82;;;;;;;8.62;32.59;100698.13;5112690;28;20039;-61
2022/03/10 04:18:35;;;;;;;11.35;6.57;;;;;;;8.60;32.54;100696.41;5113066;28;20053;-60
2022/03/10 04:21:02;;;;;;;10.18;6.85;;;;;;;8.59;32.71;100694.72;5110947;28;20050;-60
2022/03/10 04:23:28;;;;;;;8.50;6.75;;;;;;;8.58;32.96;100697.38;5112822;28;20101;-61
2022/03/10 04:25:55;;;;;;;10.38;6.60;;;;;;;8.57;33.01;100696.50;5113038;28;20120;-62
2022/03/10 04:28:22;;;;;;;9.40;6.35;;;;;;;8.56;32.75;100699.22;5111742;28;20048;-61
2022/03/10 04:30:49;;;;;;;9.35;6.68;;;;;;;8.53;32.89;100694.94;5112199;28;20047;-62
2022/03/10 04:33:16;;;;;;;10.75;6.68;;;;;;;8.52;32.80;100694.94;5112247;28;20056;-61
2022/03/10 04:35:43;;;;;;;10.32;7.25;;;;;;;8.50;32.97;100694.13;5112629;28;20086;-60
2022/03/10 04:38:10;;;;;;;11.20;6.63;;;;;;;8.50;32.99;100694.13;5112775;28;20048;-61
2022/03/10 04:40:37;;;;;;;10.65;6.78;;;;;;;8.46;33.00;100686.34;5110788;28;20211;-61
2022/03/10 04:43:04;;;;;;;11.60;7.40;;;;;;;8.45;32.78;100699.53;5112360;28;20055;-61
2022/03/10 04:45:31;;;;;;;9.18;6.90;;;;;;;8.44;32.64;100700.41;5111273;28;20043;-61
2022/03/10 04:47:58;;;;;;;11.90;7.43;;;;;;;8.42;32.81;100692.63;5112284;27;20116;-60
2022/03/10 04:50:25;;;;;;;13.07;7.43;;;;;;;8.40;33.29;100691.81;5111739;28;20118;-61
2022/03/10 04:52:52;;;;;;;13.85;8.02;;;;;;;8.40;33.26;100694.44;5110759;28;20055;-61
2022/03/10 04:55:19;;;;;;;13.07;7.25;;;;;;;8.35;33.16;100688.47;5112438;28;20108;-62
2022/03/10 04:57:49;;;;;;;10.18;7.35;;;;;;;8.33;32.96;100693.78;5112365;28;20449;-61
2022/03/10 05:00:18;;;;;;;11.70;7.50;;;;;;;8.32;33.02;100696.44;5112112;28;20043;-62
2022/03/10 05:02:47;;;;;;;12.38;7.43;;;;;;;8.29;33.08;100688.66;5110665;28;20050;-60
2022/03/10 05:05:14;;;;;;;10.70;7.38;;;;;;;8.26;33.26;100702.75;5112033;28;20055;-61
2022/03/10 05:07:41;;;;;;;12.25;7.40;;;;;;;8.24;33.56;100703.69;5111845;28;20047;-60
2022/03/10 05:10:10;;;;;;;11.55;7.57;;;;;;;8.20;33.34;100701.19;5111503;28;20568;-61
2022/03/10 05:12:52;;;;;;;10.48;7.07;;;;;;;8.17;33.89;100701.28;5110485;28;20457;-61
2022/03/10 05:15:24;;;;;;;11.25;7.50;;;;;;;8.17;33.98;100696.03;5109917;28;20134;-62
2022/03/10 05:17:52;;;;;;;13.05;7.55;;;;;;;8.16;33.84;100691.72;5111950;28;20044;-61
2022/03/10 05:20:19;;;;;;;12.63;8.20;;;;;;;8.13;33.67;100693.53;5111451;28;20078;-61
2022/03/10 05:22:51;;;;;;;10.15;7.38;;;;;;;8.08;33.73;100693.72;5111318;28;20048;-61
2022/03/10 05:25:19;;;;;;;12.43;7.82;;;;;;;8.07;33.38;100703.31;5111803;28;20064;-60
2022/03/10 05:27:47;;;;;;;11.27;7.43;;;;;;;8.06;33.24;100706.00;5109926;28;20128;-60
2022/03/10 05:30:14;;;;;;;13.30;8.35;;;;;;;8.05;33.53;100697.28;5111121;28;20047;-60
2022/03/10 05:32:41;;;;;;;11.23;7.40;;;;;;;8.04;33.50;100706.03;5111389;28;20047;-61
2022/03/10 05:35:10;;;;;;;12.50;7.85;;;;;;;8.03;33.87;100704.31;5111497;28;20047;-60
2022/03/10 05:37:40;;;;;;;11.70;7.78;;;;;;;8.03;33.85;100706.06;5111638;28;20043;-61
2022/03/10 05:40:08;;;;;;;10.18;7.22;;;;;;;8.01;33.65;100703.53;5110851;28;20074;-61
2022/03/10 05:42:39;;;;;;;12.27;7.78;;;;;;;8.00;33.78;100706.19;5111487;28;20059;-61
2022/03/10 05:45:08;;;;;;;11.32;7.85;;;;;;;7.99;33.98;100700.09;5111283;28;20564;-60
2022/03/10 05:47:35;;;;;;;15.38;7.30;;;;;;;8.00;33.59;100703.56;5110153;28;20048;-60
2022/03/10 05:50:03;;;;;;;13.70;7.97;;;;;;;7.98;33.94;100711.47;5110061;28;20047;-61
2022/03/10 05:52:30;;;;;;;11.25;7.32;;;;;;;7.99;34.03;100714.97;5109674;28;20124;-61
2022/03/10 05:54:57;;;;;;;11.20;7.03;;;;;;;7.99;33.99;100715.81;5109721;28;20047;-63
2022/03/10 05:57:24;;;;;;;12.02;7.55;;;;;;;8.00;33.72;100716.69;5111303;28;20096;-62
2022/03/10 05:59:51;;;;;;;12.95;7.55;;;;;;;8.00;33.87;100717.53;5110116;28;20124;-61
2022/03/10 06:02:18;;;;;;;10.90;7.18;;;;;;;8.01;33.96;100715.78;5111053;28;20100;-62
2022/03/10 06:04:47;;;;;;;11.73;7.00;;;;;;;8.02;33.77;100728.84;5109675;28;20048;-61
2022/03/10 06:07:14;;;;;;;13.40;7.22;;;;;;;8.03;33.53;100720.06;5110868;28;20092;-60
2022/03/10 06:09:40;;;;;;;10.90;6.82;;;;;;;8.03;33.81;100720.06;5110997;28;20105;-61
2022/03/10 06:12:08;;;;;;;12.02;7.82;;;;;;;8.03;33.54;100716.56;5110997;28;20105;-61
2022/03/10 06:14:36;;;;;;;12.85;7.40;;;;;;;8.04;33.83;100727.00;5110617;28;20047;-63
2022/03/10 06:17:03;;;;;;;12.30;7.20;;;;;;;8.04;34.06;100739.28;5110801;28;20100;-61
2022/03/10 06:19:30;;;;;;;11.02;7.32;;;;;;;8.05;33.97;100738.38;5110722;28;20529;-61
2022/03/10 06:21:56;;;;;;;10.60;6.75;;;;;;;8.06;33.79;100745.31;5110705;28;20048;-60
2022/03/10 06:24:23;;;;;;;11.48;7.32;;;;;;;8.06;33.98;100738.34;5111362;28;20052;-63
2022/03/10 06:26:49;;;;;;;10.23;6.38;;;;;;;8.06;33.90;100745.31;5110831;28;20104;-61
2022/03/10 06:29:16;;;;;;;13.18;7.50;;;;;;;8.08;34.06;100748.78;5110337;28;20083;-61
2022/03/10 06:31:42;;;;;;;10.07;6.78;;;;;;;8.10;33.66;100751.34;5109475;28;20073;-61
2022/03/10 06:34:09;;;;;;;12.43;6.90;;;;;;;8.12;33.88;100746.91;5110493;28;20104;-61
2022/03/10 06:36:36;;;;;;;11.38;7.18;;;;;;;8.13;34.08;100753.88;5110250;28;20047;-64
2022/03/10 06:39:02;;;;;;;11.68;7.50;;;;;;;8.14;34.15;100751.19;5110851;28;20112;-62
2022/03/10 06:41:29;;;;;;;12.65;7.47;;;;;;;8.16;34.02;100753.78;5110515;28;20101;-62
2022/03/10 06:43:55;;;;;;;13.48;7.95;;;;;;;8.17;34.31;100756.34;5110844;28;20047;-61
2022/03/10 06:46:22;;;;;;;14.70;7.40;;;;;;;8.20;34.33;100752.78;5108978;28;20500;-63
2022/03/10 06:48:49;;;;;;;9.60;6.88;;;;;;;8.22;34.07;100750.94;5110500;28;20066;-61
2022/03/10 06:51:15;;;;;;;12.90;7.68;;;;;;;8.25;34.00;100758.72;5110295;28;20098;-61
2022/03/10 06:53:42;;;;;;;11.57;7.43;;;;;;;8.27;34.44;100749.06;5110762;28;20048;-61
2022/03/10 06:56:08;;;;;;;13.05;7.35;;;;;;;8.32;34.27;100762.03;5109126;28;20487;-63
2022/03/10 06:58:36;;;;;;;11.80;6.85;;;;;;;8.35;34.46;100764.56;5110675;28;20571;-62
2022/03/10 07:01:03;;;;;;;16.08;7.32;;;;;;;8.38;34.10;100764.47;5109783;28;20043;-63
2022/03/10 07:03:30;;;;;;;9.25;6.85;;;;;;;8.42;34.40;100766.09;5110501;28;20056;-61
2022/03/10 07:05:56;;;;;;;9.73;6.75;;;;;;;8.44;34.01;100774.75;5110420;28;20537;-63
2022/03/10 07:08:23;;;;;;;15.00;7.70;;;;;;;8.48;34.13;100773.75;5109571;28;20052;-61
2022/03/10 07:10:49;;;;;;;10.38;7.22;;;;;;;8.52;34.35;100766.63;5110323;28;20101;-62
2022/03/10 07:13:16;;;;;;;11.82;7.40;;;;;;;8.56;34.45;100772.69;5110207;28;20455;-61
2022/03/10 07:15:42;;;;;;;11.88;7.72;;;;;;;8.60;34.07;100771.69;5110382;28;20063;-61
2022/03/10 07:18:09;;;;;;;14.18;7.43;;;;;;;8.63;34.43;100768.09;5109605;28;20407;-62
2022/03/10 07:20:36;;;;;;;14.07;7.65;;;;;;;8.68;34.45;100776.69;5110716;28;20055;-62
2022/03/10 07:23:03;;;;;;;11.45;7.78;;;;;;;8.71;34.46;100773.97;5110218;28;20077;-63
2022/03/10 07:25:29;;;;;;;13.73;7.40;;;;;;;8.76;34.31;100782.53;5110490;28;20047;-62
2022/03/10 07:27:56;;;;;;;9.52;6.70;;;;;;;8.81;34.42;100783.25;5109717;28;20047;-62
2022/03/10 07:30:23;;;;;;;12.02;7.32;;;;;;;8.86;34.15;100783.94;5109942;28;20040;-62
2022/03/10 07:32:49;;;;;;;12.27;8.30;;;;;;;8.90;33.98;100776.81;5109862;28;20094;-62
2022/03/10 07:35:15;;;;;;;10.90;7.30;;;;;;;8.95;34.00;100774.03;5110617;28;20069;-62
2022/03/10 07:37:43;;;;;;;10.10;7.00;;;;;;;8.99;34.10;100771.28;5110285;28;20074;-62
2022/03/10 07:40:10;;;;;;;9.52;7.10;;;;;;;9.05;34.42;100771.97;5109990;28;20445;-60
2022/03/10 07:42:37;;;;;;;12.50;7.45;;;;;;;9.10;34.25;100772.66;5109995;28;20061;-61
2022/03/10 07:45:04;;;;;;;11.50;6.68;;;;;;;9.16;33.93;100771.59;5110068;28;20112;-62
2022/03/10 07:47:30;;;;;;;12.48;7.03;;;;;;;9.21;33.93;100781.03;5113282;28;20043;-61
2022/03/10 07:49:57;;;;;;;10.65;7.07;;;;;;;9.28;33.67;100772.94;5113859;28;20056;-61
2022/03/10 07:52:25;;;;;;;14.13;7.07;;;;;;;9.32;33.77;100772.78;5112641;28;20048;-61
2022/03/10 07:54:51;;;;;;;12.07;7.32;;;;;;;9.38;33.68;100777.81;5113710;28;20565;-61
2022/03/10 07:57:18;;;;;;;12.35;7.55;;;;;;;9.44;33.63;100776.72;5113732;28;20572;-62
2022/03/10 07:59:44;;;;;;;12.35;7.55;;;;;;;9.50;33.89;100784.38;5113405;28;20442;-60
2022/03/10 08:02:11;;;;;;;11.73;7.40;;;;;;;9.57;33.77;100784.19;5113474;28;20055;-61
2022/03/10 08:04:39;;;;;;;11.60;6.82;;;;;;;9.63;33.72;100786.56;5113602;27;20397;-62
2022/03/10 08:07:06;;;;;;;11.13;6.85;;;;;;;9.70;33.73;100792.47;5113478;28;20039;-62
2022/03/10 08:09:32;;;;;;;10.90;7.13;;;;;;;9.76;33.48;100789.63;5112892;28;20044;-61
2022/03/10 08:11:59;;;;;;;12.95;6.93;;;;;;;9.83;33.50;100782.38;5113611;28;20051;-60
2022/03/10 08:14:25;;;;;;;10.90;7.07;;;;;;;9.89;33.35;100779.50;5112571;28;20086;-61
2022/03/10 08:16:52;;;;;;;14.00;7.30;;;;;;;9.97;33.31;100776.56;5112515;28;20040;-62
2022/03/10 08:23:07;;;;;;;11.45;7.28;;;;;;;10.16;33.27;100768.81;5112250;28;20050;-61
2022/03/10 08:25:38;;;;;;;10.77;6.70;;;;;;;10.22;33.26;100768.59;5113057;28;20834;-62
2022/03/10 08:28:06;;;;;;;10.80;6.85;;;;;;;10.28;33.30;100770.97;5112166;28;20063;-61
2022/03/10 08:30:33;;;;;;;11.13;7.55;;;;;;;10.36;33.35;100764.56;5103113;28;20036;-63
2022/03/10 08:33:00;;;;;;;11.68;7.47;;;;;;;10.41;33.22;100757.34;5111407;28;20046;-61
2022/03/10 08:35:27;;;;;;;13.32;7.93;;;;;;;10.46;32.98;100752.75;5111289;28;20097;-62
2022/03/10 08:37:54;;;;;;;12.95;8.25;;;;;;;10.53;32.87;100750.75;5112335;28;20074;-61
2022/03/10 08:40:20;;;;;;;12.38;7.40;;;;;;;10.60;32.95;100760.09;5112352;28;20055;-61
2022/03/10 08:42:50;;;;;;;12.75;7.28;;;;;;;10.67;32.72;100755.44;5113083;28;20101;-63
2022/03/10 08:45:19;;;;;;;12.35;7.55;;;;;;;10.73;32.76;100751.72;5113025;28;20099;-61
2022/03/10 08:47:46;;;;;;;11.77;8.02;;;;;;;10.81;32.68;100754.88;5111302;28;20059;-62
2022/03/10 08:50:19;;;;;;;;;;;;;;;10.86;32.46;100755.53;5113057;28;20051;-63
2022/03/10 08:52:46;;;;;;;10.18;6.40;;;;;;;10.98;32.84;100750.69;5112963;28;19928;-62
2022/03/10 08:55:13;;;;;;;11.18;7.55;;;;;;;11.01;32.83;100746.13;5112927;28;20104;-60
2022/03/10 08:57:40;;;;;;;11.15;7.40;;;;;;;11.06;32.68;100754.69;5111687;28;20101;-60
2022/03/10 09:00:10;;;;;;;11.00;7.78;;;;;;;11.13;32.83;100754.41;5111709;28;20055;-62
2022/03/10 09:02:36;;;;;;;11.95;8.27;;;;;;;11.19;32.70;100748.88;5090714;28;20063;-61
2022/03/10 09:05:04;;;;;;;9.68;7.18;;;;;;;11.24;32.86;100754.81;5091632;28;20096;-61
2022/03/10 09:07:31;;;;;;;13.35;8.45;;;;;;;11.31;32.67;100748.34;5091913;28;20097;-60
2022/03/10 09:09:57;;;;;;;12.93;8.10;;;;;;;11.37;32.88;100749.00;5091429;28;20120;-63
2022/03/10 09:12:24;;;;;;;12.48;8.15;;;;;;;11.43;32.61;100749.56;5091884;28;20055;-61
2022/03/10 09:14:52;;;;;;;12.23;7.82;;;;;;;11.52;32.65;100761.50;5108374;28;20120;-61
2022/03/10 09:17:19;;;;;;;11.02;8.30;;;;;;;11.57;32.30;100751.59;5112124;28;20055;-61
2022/03/10 09:19:46;;;;;;;14.65;8.57;;;;;;;11.66;32.35;100757.41;5111826;28;20472;-61
2022/03/10 09:22:12;;;;;;;12.10;8.13;;;;;;;11.73;32.48;100742.97;5112270;28;20051;-62
2022/03/10 09:24:39;;;;;;;11.70;8.02;;;;;;;11.81;32.41;100747.91;5112028;28;20040;-61
2022/03/10 09:27:06;;;;;;;10.15;7.28;;;;;;;11.90;32.59;100741.34;5111706;28;20116;-60
2022/03/10 09:29:33;;;;;;;11.02;7.63;;;;;;;11.98;32.32;100737.44;5111611;28;20516;-62
2022/03/10 09:31:59;;;;;;;10.13;7.80;;;;;;;12.06;32.00;100739.72;5111768;28;20109;-60
2022/03/10 09:34:26;;;;;;;19.42;7.93;;;;;;;12.17;32.21;100741.84;5111740;28;20047;-60
2022/03/10 09:36:53;;;;;;;13.88;7.72;;;;;;;12.28;32.20;100740.47;5112038;28;20098;-61
2022/03/10 09:39:20;;;;;;;10.38;7.50;;;;;;;12.36;32.45;100740.97;5111782;28;20048;-61
2022/03/10 09:41:46;;;;;;;9.70;7.28;;;;;;;12.48;32.25;100728.94;5111125;28;20426;-62
2022/03/10 09:44:19;;;;;;;12.27;7.90;;;;;;;12.58;32.07;100729.34;5111653;28;20044;-62
2022/03/10 09:46:51;;;;;;;10.73;6.95;;;;;;;12.69;31.80;100723.53;5111781;27;20055;-62
2022/03/10 09:49:19;;;;;;;11.85;7.55;;;;;;;12.79;32.28;100721.28;5110107;28;20047;-61
2022/03/10 09:51:49;;;;;;;11.52;7.78;;;;;;;12.87;31.47;100725.22;5110541;28;20104;-62
2022/03/10 09:54:16;;;;;;;13.27;6.90;;;;;;;12.98;31.79;100726.47;5110538;28;20052;-62
2022/03/10 09:56:43;;;;;;;12.45;7.55;;;;;;;13.10;31.47;100720.56;5111033;28;20055;-61
2022/03/10 09:59:12;;;;;;;11.57;7.70;;;;;;;13.21;31.35;100727.91;5109595;28;20080;-61
2022/03/10 10:01:39;;;;;;;12.35;8.02;;;;;;;13.32;31.06;100724.72;5110010;28;20051;-62
2022/03/10 10:04:06;;;;;;;14.45;8.05;;;;;;;13.43;31.13;100722.34;5111227;28;20085;-61
2022/03/10 10:07:03;;;;;;;11.38;8.02;;;;;;;13.54;31.12;100732.38;5110039;28;20044;-61
2022/03/10 10:09:59;;;;;;;11.52;8.57;;;;;;;13.69;30.89;100727.19;5108542;28;20039;-61
2022/03/10 10:12:28;;;;;;;13.32;8.32;;;;;;;13.87;30.82;100733.25;5098010;28;20054;-62
2022/03/10 10:14:56;;;;;;;13.57;8.40;;;;;;;13.99;30.68;100733.53;5109940;28;20051;-61
2022/03/10 10:17:28;;;;;;;14.27;8.98;;;;;;;14.09;30.53;100724.13;5111112;28;20130;-63
2022/03/10 10:20:14;;;;;;;15.60;9.38;;;;;;;14.26;30.52;100727.59;5109870;28;20480;-62
2022/03/10 10:22:41;;;;;;;12.52;9.50;;;;;;;14.40;30.33;100727.69;5110846;28;20131;-64
2022/03/10 10:25:08;;;;;;;14.00;9.40;;;;;;;14.52;30.10;100725.25;5109791;28;20101;-62
2022/03/10 10:27:37;;;;;;;17.15;9.55;;;;;;;14.65;30.28;100728.88;5110975;28;20055;-61
2022/03/10 10:30:07;;;;;;;14.90;10.55;;;;;;;14.78;29.71;100725.56;5109385;28;20051;-61
2022/03/10 10:32:34;;;;;;;17.52;11.57;;;;;;;14.92;29.95;100724.75;5111111;28;20048;-62
2022/03/10 10:35:06;;;;;;;13.77;10.32;;;;;;;15.03;29.73;100724.09;5111001;28;20055;-63
2022/03/10 10:37:35;;;;;;;13.75;10.27;;;;;;;15.19;29.86;100724.88;5110462;28;20052;-61
2022/03/10 10:40:07;;;;;;;14.40;10.57;;;;;;;15.33;29.64;100717.88;5109430;28;20043;-61
2022/03/10 10:42:37;;;;;;;16.23;11.07;;;;;;;15.46;30.07;100712.63;5109308;28;20044;-62
2022/03/10 10:45:34;;;;;;;18.20;11.07;;;;;;;15.60;29.64;100717.09;5109482;28;20048;-64
2022/03/10 10:48:09;;;;;;;18.58;11.68;;;;;;;15.77;28.75;100716.88;5094105;28;20090;-61
2022/03/10 10:50:41;;;;;;;17.88;12.25;;;;;;;15.91;28.56;100715.13;5108985;28;20035;-63
2022/03/10 10:53:09;;;;;;;19.08;11.85;;;;;;;16.03;29.03;100710.84;5109352;28;20465;-61
2022/03/10 10:55:38;;;;;;;19.30;12.07;;;;;;;16.15;28.89;100709.22;5110883;28;20056;-61
2022/03/10 10:58:14;;;;;;;22.67;11.75;;;;;;;16.23;28.66;100706.06;5110575;28;20515;-61
2022/03/10 11:00:46;;;;;;;18.42;12.05;;;;;;;16.36;28.16;100706.09;5109173;28;20112;-62
2022/03/10 11:03:25;;;;;;;15.70;11.60;;;;;;;16.46;27.91;100704.53;5110801;28;20494;-62
2022/03/10 11:05:53;;;;;;;19.92;12.10;;;;;;;16.61;28.00;100701.78;5108838;28;20047;-61
2022/03/10 11:08:21;;;;;;;20.55;12.10;;;;;;;16.71;28.37;100697.56;5109462;28;20109;-62
2022/03/10 11:10:49;;;;;;;18.35;11.63;;;;;;;16.85;28.26;100698.44;5109131;28;20047;-61
2022/03/10 11:13:21;;;;;;;15.48;10.93;;;;;;;16.98;28.91;100693.13;5109161;28;20063;-62
2022/03/10 11:15:49;;;;;;;15.65;11.20;;;;;;;17.11;28.23;100687.81;5109205;28;20051;-61
2022/03/10 11:18:21;;;;;;;13.90;11.02;;;;;;;17.25;27.14;100682.41;5108996;28;20063;-61
2022/03/10 11:20:53;;;;;;;19.13;11.55;;;;;;;17.40;27.33;100675.13;5109512;28;20048;-61
2022/03/10 11:23:42;;;;;;;15.23;11.07;;;;;;;17.58;27.08;100675.59;5113298;28;20058;-61
2022/03/10 11:26:19;;;;;;;14.93;10.60;;;;;;;17.83;27.16;100679.16;5114408;28;20124;-62
2022/03/10 11:28:48;;;;;;;18.50;10.07;;;;;;;18.14;27.62;100669.91;5113942;28;20047;-62
2022/03/10 11:31:15;;;;;;;15.43;11.25;;;;;;;18.48;27.99;100665.56;5112865;28;20052;-62
2022/03/10 11:33:43;;;;;;;13.73;11.25;;;;;;;18.93;27.87;100668.41;5114303;28;20040;-61
2022/03/10 11:36:18;;;;;;;13.00;9.65;;;;;;;19.49;26.83;100667.59;5112996;28;20052;-63